createdAt,value
2022-11-16T00:01:03.503Z,11.95
2022-11-16T00:03:56.860Z,12.63
2022-11-16T00:06:49.304Z,12.55
2022-11-16T00:09:39.394Z,12.27
2022-11-16T00:12:29.670Z,12.13
2022-11-16T00:15:19.574Z,12.60
2022-11-16T00:18:09.540Z,11.93
2022-11-16T00:20:59.784Z,10.63
2022-11-16T00:23:49.816Z,11.95
2022-11-16T00:26:39.803Z,11.75
2022-11-16T00:29:29.910Z,13.15
2022-11-16T00:32:19.848Z,12.32
2022-11-16T00:35:10.271Z,13.02
2022-11-16T00:38:00.161Z,12.65
2022-11-16T00:40:50.244Z,12.48
2022-11-16T00:43:40.545Z,12.93
2022-11-16T00:46:30.832Z,12.65
2022-11-16T00:49:20.803Z,12.15
2022-11-16T00:52:11.280Z,13.48
2022-11-16T00:55:01.338Z,13.55
2022-11-16T00:57:51.562Z,12.32
2022-11-16T01:00:44.320Z,13.88
2022-11-16T01:03:36.076Z,14.43
2022-11-16T01:06:26.344Z,13.40
2022-11-16T01:09:16.101Z,14.27
2022-11-16T01:12:08.837Z,12.90
2022-11-16T01:14:58.888Z,12.45
2022-11-16T01:17:49.037Z,12.82
2022-11-16T01:20:40.852Z,11.40
2022-11-16T01:23:30.921Z,11.75
2022-11-16T01:26:20.856Z,12.57
2022-11-16T01:29:11.285Z,11.57
2022-11-16T01:32:06.872Z,11.27
2022-11-16T01:34:57.859Z,10.93
2022-11-16T01:37:51.337Z,10.05
2022-11-16T01:40:41.661Z,10.45
2022-11-16T01:43:59.484Z,10.68
2022-11-16T01:46:54.603Z,10.13
2022-11-16T01:49:51.736Z,10.35
2022-11-16T01:52:54.959Z,10.63
2022-11-16T01:55:48.460Z,11.10
2022-11-16T01:58:45.875Z,9.90
2022-11-16T02:01:48.826Z,10.35
2022-11-16T02:04:39.209Z,11.25
2022-11-16T02:08:47.107Z,10.20
2022-11-16T02:11:56.172Z,10.32
2022-11-16T02:14:58.469Z,8.77
2022-11-16T02:18:03.117Z,9.88
2022-11-16T02:21:23.180Z,9.80
2022-11-16T02:24:45.455Z,7.90
2022-11-16T02:28:04.397Z,8.50
2022-11-16T02:30:57.882Z,7.30
2022-11-16T02:33:50.150Z,7.35
2022-11-16T02:36:41.938Z,6.65
2022-11-16T02:39:34.458Z,6.28
2022-11-16T02:42:32.479Z,6.65
2022-11-16T02:45:27.797Z,7.10
2022-11-16T02:48:27.095Z,7.30
2022-11-16T02:51:19.573Z,8.38
2022-11-16T02:54:14.780Z,7.40
2022-11-16T02:57:08.303Z,7.85
2022-11-16T03:00:00.525Z,7.78
2022-11-16T03:03:04.538Z,8.13
2022-11-16T03:06:01.601Z,7.53
2022-11-16T03:09:01.017Z,7.55
2022-11-16T03:11:59.515Z,7.75
2022-11-16T03:14:56.272Z,8.23
2022-11-16T03:17:50.015Z,8.15
2022-11-16T03:20:44.192Z,7.82
2022-11-16T03:23:34.593Z,7.68
2022-11-16T03:26:31.903Z,7.97
2022-11-16T03:29:41.552Z,7.75
2022-11-16T03:32:46.293Z,8.35
2022-11-16T03:35:52.282Z,8.32
2022-11-16T03:38:47.249Z,8.40
2022-11-16T03:41:41.874Z,8.27
2022-11-16T03:44:34.347Z,8.57
2022-11-16T03:47:24.870Z,8.68
2022-11-16T03:50:15.955Z,8.95
2022-11-16T03:53:06.298Z,8.10
2022-11-16T03:55:58.019Z,8.63
2022-11-16T03:58:50.349Z,8.90
2022-11-16T04:01:44.715Z,8.48
2022-11-16T04:04:55.035Z,8.40
2022-11-16T04:08:06.542Z,8.90
2022-11-16T04:11:15.639Z,8.68
2022-11-16T04:14:31.875Z,9.15
2022-11-16T04:17:42.220Z,8.45
2022-11-16T04:20:52.809Z,9.05
2022-11-16T04:24:04.594Z,8.75
2022-11-16T04:27:17.351Z,8.63
2022-11-16T04:30:08.454Z,8.63
2022-11-16T04:33:17.916Z,8.15
2022-11-16T04:36:27.100Z,8.98
2022-11-16T04:39:17.268Z,7.75
2022-11-16T04:42:17.158Z,7.38
2022-11-16T04:45:28.721Z,8.57
2022-11-16T04:48:20.008Z,9.50
2022-11-16T04:51:13.112Z,9.55
2022-11-16T04:54:04.243Z,9.82
2022-11-16T04:56:54.623Z,10.07
2022-11-16T04:59:47.201Z,9.68
2022-11-16T05:02:37.046Z,9.43
2022-11-16T05:05:27.026Z,9.93
2022-11-16T05:08:17.196Z,8.30
2022-11-16T05:11:09.056Z,8.85
2022-11-16T05:13:59.508Z,8.65
2022-11-16T05:16:49.456Z,8.98
2022-11-16T05:19:58.682Z,8.75
2022-11-16T05:22:58.679Z,8.65
2022-11-16T05:25:55.282Z,8.73
2022-11-16T05:28:46.427Z,8.63
2022-11-16T05:31:40.464Z,7.95
2022-11-16T05:34:38.451Z,8.10
2022-11-16T05:37:30.386Z,7.90
2022-11-16T05:40:21.491Z,8.43
2022-11-16T05:43:17.851Z,8.38
2022-11-16T05:46:17.848Z,8.85
2022-11-16T05:49:09.685Z,10.05
2022-11-16T05:52:00.397Z,9.13
2022-11-16T05:54:51.992Z,9.43
2022-11-16T05:57:41.985Z,9.85
2022-11-16T06:00:33.183Z,10.40
2022-11-16T06:03:39.148Z,9.43
2022-11-16T06:06:29.348Z,10.48
2022-11-16T06:09:20.271Z,10.20
2022-11-16T06:12:13.971Z,8.85
2022-11-16T06:15:07.490Z,9.27
2022-11-16T06:17:57.672Z,9.20
2022-11-16T06:20:48.794Z,9.50
2022-11-16T06:23:40.764Z,9.40
2022-11-16T06:26:31.544Z,8.43
2022-11-16T06:29:22.120Z,8.73
2022-11-16T06:32:14.588Z,8.65
2022-11-16T06:35:04.979Z,9.85
2022-11-16T06:37:55.879Z,11.32
2022-11-16T06:40:51.977Z,11.45
2022-11-16T06:43:42.413Z,10.55
2022-11-16T06:46:33.555Z,10.98
2022-11-16T06:49:24.157Z,11.32
2022-11-16T06:52:15.918Z,11.07
2022-11-16T06:55:06.365Z,11.05
2022-11-16T06:57:58.509Z,10.48
2022-11-16T07:00:49.493Z,10.52
2022-11-16T07:03:39.822Z,10.75
2022-11-16T07:06:31.768Z,10.80
2022-11-16T07:09:22.913Z,10.35
2022-11-16T07:12:12.831Z,10.98
2022-11-16T07:15:05.215Z,12.05
2022-11-16T07:17:57.281Z,12.02
2022-11-16T07:20:47.528Z,11.57
2022-11-16T07:23:37.800Z,10.75
2022-11-16T07:26:31.118Z,12.05
2022-11-16T07:29:25.952Z,12.32
2022-11-16T07:32:48.432Z,11.25
2022-11-16T07:35:45.631Z,11.60
2022-11-16T07:38:36.569Z,11.13
2022-11-16T07:41:26.725Z,10.95
2022-11-16T07:44:30.362Z,11.23
2022-11-16T07:47:38.439Z,11.25
2022-11-16T07:50:30.812Z,12.60
2022-11-16T07:53:21.272Z,26.10
2022-11-16T07:56:12.478Z,19.17
2022-11-16T07:59:05.915Z,12.35
2022-11-16T08:01:59.362Z,13.82
2022-11-16T08:04:51.097Z,11.00
2022-11-16T08:07:45.618Z,5.20
2022-11-16T08:10:36.265Z,6.07
2022-11-16T08:13:27.184Z,5.88
2022-11-16T08:16:19.910Z,5.75
2022-11-16T08:19:13.144Z,5.18
2022-11-16T08:22:03.795Z,4.88
2022-11-16T08:24:56.289Z,4.50
2022-11-16T08:27:48.154Z,4.20
2022-11-16T08:30:41.018Z,4.20
2022-11-16T08:33:31.800Z,4.30
2022-11-16T08:36:22.809Z,3.80
2022-11-16T08:39:12.997Z,3.03
2022-11-16T08:42:03.310Z,4.13
2022-11-16T08:44:53.415Z,3.63
2022-11-16T08:47:44.527Z,2.97
2022-11-16T08:50:55.409Z,4.40
2022-11-16T08:53:45.463Z,6.53
2022-11-16T08:56:35.788Z,5.90
2022-11-16T08:59:27.146Z,5.40
2022-11-16T09:02:25.353Z,7.00
2022-11-16T09:05:16.136Z,6.15
2022-11-16T09:08:06.109Z,5.22
2022-11-16T09:10:56.058Z,4.70
2022-11-16T09:13:48.020Z,4.60
2022-11-16T09:16:37.986Z,3.40
2022-11-16T09:19:27.966Z,2.97
2022-11-16T09:22:18.002Z,3.30
2022-11-16T09:25:09.424Z,4.25
2022-11-16T09:27:59.863Z,4.05
2022-11-16T09:30:51.331Z,3.10
2022-11-16T09:33:41.605Z,2.70
2022-11-16T09:36:31.926Z,2.55
2022-11-16T09:39:37.366Z,2.40
2022-11-16T09:42:52.535Z,2.20
2022-11-16T09:46:14.263Z,2.33
2022-11-16T09:49:17.256Z,1.80
2022-11-16T09:52:26.637Z,2.17
2022-11-16T09:55:35.882Z,2.10
2022-11-16T09:58:38.969Z,2.38
2022-11-16T10:01:51.764Z,2.20
2022-11-16T10:05:07.847Z,2.42
2022-11-16T10:08:21.257Z,2.22
2022-11-16T10:11:36.206Z,2.22
2022-11-16T10:14:35.719Z,2.13
2022-11-16T10:17:43.699Z,2.03
2022-11-16T10:20:55.574Z,2.25
2022-11-16T10:23:57.764Z,2.20
2022-11-16T10:27:22.192Z,1.83
2022-11-16T10:30:18.511Z,2.45
2022-11-16T10:33:16.839Z,1.88
2022-11-16T10:36:14.380Z,2.17
2022-11-16T10:39:12.991Z,1.80
2022-11-16T10:42:10.084Z,2.17
2022-11-16T10:45:12.411Z,1.90
2022-11-16T10:48:21.766Z,1.52
2022-11-16T10:51:11.846Z,1.52
2022-11-16T10:54:03.088Z,2.00
2022-11-16T10:57:04.837Z,2.08
2022-11-16T10:59:55.566Z,1.83
2022-11-16T11:02:48.936Z,2.15
2022-11-16T11:05:48.727Z,1.70
2022-11-16T11:08:38.581Z,2.08
2022-11-16T11:11:47.075Z,1.55
2022-11-16T11:14:37.433Z,1.63
2022-11-16T11:17:29.841Z,1.60
2022-11-16T11:20:24.381Z,1.52
2022-11-16T11:23:23.728Z,1.40
2022-11-16T11:26:36.172Z,1.52
2022-11-16T11:29:32.659Z,1.50
2022-11-16T11:32:26.193Z,1.20
2022-11-16T11:35:29.989Z,1.10
2022-11-16T11:38:20.350Z,2.25
2022-11-16T11:41:19.085Z,2.53
2022-11-16T11:44:16.696Z,1.25
2022-11-16T11:50:57.674Z,1.20
2022-11-16T11:53:56.700Z,1.40
2022-11-16T11:56:46.889Z,1.23
2022-11-16T11:59:36.874Z,2.00
2022-11-16T12:02:50.599Z,1.17
2022-11-16T12:06:06.964Z,1.20
2022-11-16T12:09:15.957Z,1.02
2022-11-16T12:12:16.904Z,1.02
2022-11-16T12:15:32.246Z,1.10
2022-11-16T12:18:56.086Z,0.98
2022-11-16T12:22:18.628Z,0.98
2022-11-16T12:25:11.863Z,1.05
2022-11-16T12:28:17.407Z,1.08
2022-11-16T12:31:38.560Z,1.13
2022-11-16T12:34:56.568Z,1.13
2022-11-16T12:37:55.624Z,1.10
2022-11-16T12:41:00.309Z,1.10
2022-11-16T12:47:22.747Z,1.10
2022-11-16T12:50:39.651Z,1.23
2022-11-16T12:53:46.014Z,1.05
2022-11-16T12:56:51.400Z,1.27
2022-11-16T13:00:13.567Z,0.93
2022-11-16T13:03:32.461Z,1.13
2022-11-16T13:06:42.871Z,0.90
2022-11-16T13:09:39.884Z,0.88
2022-11-16T13:12:31.776Z,0.80
2022-11-16T13:15:33.596Z,1.08
2022-11-16T13:18:23.885Z,1.10
2022-11-16T13:21:23.496Z,1.08
2022-11-16T13:24:44.055Z,0.80
2022-11-16T13:27:57.201Z,0.80
2022-11-16T13:31:00.269Z,1.00
2022-11-16T13:34:01.379Z,0.70
2022-11-16T13:36:51.979Z,0.65
2022-11-16T13:39:57.460Z,1.00
2022-11-16T13:43:17.199Z,0.90
2022-11-16T13:46:07.511Z,0.88
2022-11-16T13:48:58.067Z,1.00
2022-11-16T13:52:17.232Z,1.10
2022-11-16T13:55:22.982Z,0.82
2022-11-16T13:58:22.734Z,0.73
2022-11-16T14:01:16.790Z,1.17
2022-11-16T14:04:35.479Z,0.88
2022-11-16T14:07:42.973Z,1.45
2022-11-16T14:10:33.130Z,0.80
2022-11-16T14:13:47.118Z,0.70
2022-11-16T14:16:42.076Z,1.10
2022-11-16T14:19:44.687Z,0.90
2022-11-16T14:22:56.357Z,1.08
2022-11-16T14:26:08.521Z,0.93
2022-11-16T14:29:50.221Z,1.00
2022-11-16T14:32:49.572Z,1.27
2022-11-16T14:35:40.371Z,0.98
2022-11-16T14:38:36.511Z,0.95
2022-11-16T14:41:27.098Z,1.10
2022-11-16T14:44:24.374Z,0.90
2022-11-16T14:47:25.975Z,1.58
2022-11-16T14:50:24.524Z,1.50
2022-11-16T14:53:19.626Z,0.95
2022-11-16T14:56:13.609Z,1.00
2022-11-16T14:59:04.249Z,1.45
2022-11-16T15:01:54.459Z,0.98
2022-11-16T15:04:44.750Z,1.00
2022-11-16T15:07:35.127Z,1.10
2022-11-16T15:10:29.118Z,1.42
2022-11-16T15:13:23.078Z,0.85
2022-11-16T15:16:19.433Z,1.30
2022-11-16T15:19:12.667Z,0.95
2022-11-16T15:22:04.515Z,1.17
2022-11-16T15:25:40.092Z,1.05
2022-11-16T15:28:27.247Z,1.42
2022-11-16T15:31:25.920Z,1.27
2022-11-16T15:34:19.074Z,1.05
2022-11-16T15:37:15.036Z,1.63
2022-11-16T15:40:06.178Z,1.17
2022-11-16T15:42:59.272Z,1.30
2022-11-16T15:45:50.348Z,1.20
2022-11-16T15:48:41.247Z,1.00
2022-11-16T15:51:31.505Z,1.23
2022-11-16T15:54:51.694Z,1.00
2022-11-16T15:57:46.423Z,1.10
2022-11-16T16:00:38.000Z,1.30
2022-11-16T16:03:31.693Z,1.50
2022-11-16T16:06:47.032Z,2.10
2022-11-16T16:12:29.270Z,1.40
2022-11-16T16:15:25.938Z,1.38
2022-11-16T16:18:39.229Z,1.40
2022-11-16T16:21:49.591Z,2.50
2022-11-16T16:24:41.162Z,1.92
2022-11-16T16:27:32.485Z,1.48
2022-11-16T16:30:23.066Z,1.90
2022-11-16T16:33:21.882Z,2.47
2022-11-16T16:36:13.597Z,2.20
2022-11-16T16:39:03.852Z,2.60
2022-11-16T16:41:54.286Z,2.40
2022-11-16T16:44:46.053Z,2.10
2022-11-16T16:47:36.304Z,2.20
2022-11-16T16:50:26.551Z,2.45
2022-11-16T16:53:16.474Z,2.58
2022-11-16T16:56:14.359Z,2.42
2022-11-16T16:59:04.233Z,2.97
2022-11-16T17:01:54.076Z,2.50
2022-11-16T17:04:46.363Z,2.75
2022-11-16T17:07:36.770Z,4.05
2022-11-16T17:10:27.091Z,2.80
2022-11-16T17:13:16.985Z,3.40
2022-11-16T17:16:07.182Z,3.45
2022-11-16T17:18:57.050Z,3.70
2022-11-16T17:21:46.964Z,4.35
2022-11-16T17:24:37.109Z,4.75
2022-11-16T17:27:26.954Z,5.53
2022-11-16T17:30:16.775Z,4.65
2022-11-16T17:33:06.653Z,5.22
2022-11-16T17:35:57.124Z,4.63
2022-11-16T17:38:47.313Z,4.60
2022-11-16T17:41:37.916Z,3.97
2022-11-16T17:44:27.777Z,3.70
2022-11-16T17:47:17.919Z,3.50
2022-11-16T17:50:09.084Z,3.60
2022-11-16T17:52:59.490Z,3.75
2022-11-16T17:55:49.506Z,4.20
2022-11-16T17:58:40.046Z,4.75
2022-11-16T18:01:30.101Z,3.97
2022-11-16T18:04:20.511Z,4.28
2022-11-16T18:07:10.605Z,5.18
2022-11-16T18:10:00.992Z,4.32
2022-11-16T18:12:52.493Z,4.82
2022-11-16T18:15:42.732Z,5.10
2022-11-16T18:18:34.809Z,5.32
2022-11-16T18:21:25.671Z,6.50
2022-11-16T18:24:15.786Z,6.05
2022-11-16T18:27:06.148Z,5.60
2022-11-16T18:29:59.016Z,6.05
2022-11-16T18:32:49.676Z,5.53
2022-11-16T18:35:39.900Z,5.43
2022-11-16T18:38:30.609Z,5.18
2022-11-16T18:41:24.302Z,4.45
2022-11-16T18:44:14.398Z,5.60
2022-11-16T18:47:04.932Z,4.80
2022-11-16T18:49:54.806Z,5.28
2022-11-16T18:52:45.317Z,4.93
2022-11-16T18:55:35.375Z,4.68
2022-11-16T19:01:38.073Z,4.90
2022-11-16T19:04:28.617Z,5.88
2022-11-16T19:07:18.664Z,5.25
2022-11-16T19:10:09.891Z,5.47
2022-11-16T19:13:00.314Z,5.20
2022-11-16T19:15:55.029Z,5.82
2022-11-16T19:18:45.170Z,5.80
2022-11-16T19:21:35.800Z,5.43
2022-11-16T19:24:26.134Z,5.38
2022-11-16T19:27:16.770Z,5.10
2022-11-16T19:30:08.965Z,6.03
2022-11-16T19:32:59.711Z,4.72
2022-11-16T19:35:50.297Z,4.90
2022-11-16T19:38:41.161Z,5.45
2022-11-16T19:41:31.594Z,5.35
2022-11-16T19:44:21.658Z,5.05
2022-11-16T19:47:11.507Z,4.90
2022-11-16T19:50:02.169Z,4.70
2022-11-16T19:52:52.538Z,6.05
2022-11-16T19:55:44.241Z,4.65
2022-11-16T19:58:34.890Z,7.78
2022-11-16T20:01:27.748Z,5.75
2022-11-16T20:07:49.018Z,5.43
2022-11-16T20:10:39.291Z,5.40
2022-11-16T20:13:29.304Z,6.05
2022-11-16T20:16:22.559Z,5.82
2022-11-16T20:19:12.725Z,6.82
2022-11-16T20:22:02.681Z,7.63
2022-11-16T20:24:54.533Z,4.90
2022-11-16T20:27:44.719Z,5.07
2022-11-16T20:30:35.232Z,5.63
2022-11-16T20:33:25.987Z,4.93
2022-11-16T20:36:16.430Z,4.95
2022-11-16T20:39:07.365Z,6.45
2022-11-16T20:42:00.200Z,5.40
2022-11-16T20:45:22.864Z,5.60
2022-11-16T20:48:12.848Z,4.88
2022-11-16T20:51:03.502Z,5.00
2022-11-16T20:53:53.812Z,6.53
2022-11-16T20:56:44.449Z,4.95
2022-11-16T20:59:34.945Z,5.35
2022-11-16T21:02:25.599Z,5.32
2022-11-16T21:05:16.388Z,5.32
2022-11-16T21:08:06.465Z,5.18
2022-11-16T21:10:57.345Z,5.88
2022-11-16T21:14:07.153Z,6.20
2022-11-16T21:17:05.642Z,7.40
2022-11-16T21:23:19.507Z,15.27
2022-11-16T21:26:14.842Z,7.45
2022-11-16T21:29:05.379Z,7.00
2022-11-16T21:31:55.983Z,6.45
2022-11-16T21:34:45.825Z,6.97
2022-11-16T21:37:35.736Z,12.48
2022-11-16T21:40:26.032Z,28.85
2022-11-16T21:43:16.842Z,31.77
2022-11-16T21:46:15.511Z,19.90
2022-11-16T21:49:24.743Z,9.77
2022-11-16T21:52:14.512Z,8.98
2022-11-16T21:55:04.620Z,7.93
2022-11-16T21:57:54.480Z,8.13
2022-11-16T22:00:44.418Z,7.50
2022-11-16T22:03:34.868Z,6.68
2022-11-16T22:06:44.230Z,7.80
2022-11-16T22:09:34.456Z,6.60
2022-11-16T22:12:24.403Z,6.60
2022-11-16T22:15:14.381Z,7.40
2022-11-16T22:18:04.627Z,6.90
2022-11-16T22:20:54.691Z,7.78
2022-11-16T22:23:44.803Z,7.10
2022-11-16T22:26:37.828Z,6.25
2022-11-16T22:29:27.759Z,6.55
2022-11-16T22:32:18.075Z,6.55
2022-11-16T22:35:11.987Z,6.35
2022-11-16T22:38:02.533Z,5.93
2022-11-16T22:40:54.761Z,6.82
2022-11-16T22:43:44.898Z,6.00
2022-11-16T22:46:35.088Z,6.75
2022-11-16T22:49:25.714Z,6.22
2022-11-16T22:52:17.038Z,5.65
2022-11-16T22:55:07.817Z,6.40
2022-11-16T22:57:57.822Z,5.93
2022-11-16T23:00:48.152Z,5.30
2022-11-16T23:03:38.974Z,5.95
2022-11-16T23:06:29.704Z,6.55
2022-11-16T23:09:19.624Z,5.80
2022-11-16T23:12:28.225Z,6.32
2022-11-16T23:15:48.668Z,5.63
2022-11-16T23:18:38.884Z,5.75
2022-11-16T23:21:47.513Z,5.57
2022-11-16T23:24:56.188Z,5.85
2022-11-16T23:28:03.663Z,5.55
2022-11-16T23:30:53.816Z,5.50
2022-11-16T23:33:44.093Z,6.07
2022-11-16T23:36:34.011Z,6.05
2022-11-16T23:39:23.986Z,5.68
2022-11-16T23:42:32.700Z,5.95
2022-11-16T23:45:22.866Z,5.65
2022-11-16T23:48:15.478Z,5.55
2022-11-16T23:51:05.827Z,6.07
2022-11-16T23:53:56.008Z,6.00
2022-11-16T23:56:46.214Z,5.53
2022-11-16T23:59:36.397Z,6.22
